sensor_id;sensor_type;location;lat;lon;timestamp;P1;durP1;ratioP1;P2;durP2;ratioP2
51006;SDS011;37034;47.886;-3.904;2022-10-17T00:01:56;45.65;;;5.30;;
51006;SDS011;37034;47.886;-3.904;2022-10-17T00:04:22;43.25;;;4.88;;
51006;SDS011;37034;47.886;-3.904;2022-10-17T00:06:48;38.93;;;4.47;;
51006;SDS011;37034;47.886;-3.904;2022-10-17T00:09:13;43.28;;;4.13;;
51006;SDS011;37034;47.886;-3.904;2022-10-17T00:11:39;50.80;;;5.88;;
51006;SDS011;37034;47.886;-3.904;2022-10-17T00:14:05;44.83;;;5.55;;
51006;SDS011;37034;47.886;-3.904;2022-10-17T00:16:31;44.03;;;5.28;;
51006;SDS011;37034;47.886;-3.904;2022-10-17T00:19:01;45.05;;;5.10;;
51006;SDS011;37034;47.886;-3.904;2022-10-17T00:21:30;43.80;;;5.15;;
51006;SDS011;37034;47.886;-3.904;2022-10-17T00:23:56;45.38;;;4.57;;
51006;SDS011;37034;47.886;-3.904;2022-10-17T00:26:23;48.15;;;6.05;;
51006;SDS011;37034;47.886;-3.904;2022-10-17T00:28:50;43.92;;;4.80;;
51006;SDS011;37034;47.886;-3.904;2022-10-17T00:31:17;38.80;;;4.47;;
51006;SDS011;37034;47.886;-3.904;2022-10-17T00:33:44;45.80;;;4.90;;
51006;SDS011;37034;47.886;-3.904;2022-10-17T00:36:12;41.58;;;4.35;;
51006;SDS011;37034;47.886;-3.904;2022-10-17T00:38:50;50.33;;;5.60;;
51006;SDS011;37034;47.886;-3.904;2022-10-17T00:41:18;38.05;;;4.82;;
51006;SDS011;37034;47.886;-3.904;2022-10-17T00:46:27;31.85;;;4.10;;
51006;SDS011;37034;47.886;-3.904;2022-10-17T00:48:54;45.78;;;5.00;;
51006;SDS011;37034;47.886;-3.904;2022-10-17T00:51:56;42.15;;;4.57;;
51006;SDS011;37034;47.886;-3.904;2022-10-17T00:54:20;41.45;;;6.00;;
51006;SDS011;37034;47.886;-3.904;2022-10-17T00:56:49;44.40;;;4.72;;
51006;SDS011;37034;47.886;-3.904;2022-10-17T00:59:15;38.30;;;5.20;;
51006;SDS011;37034;47.886;-3.904;2022-10-17T01:01:47;44.78;;;4.97;;
51006;SDS011;37034;47.886;-3.904;2022-10-17T01:04:24;38.75;;;4.20;;
51006;SDS011;37034;47.886;-3.904;2022-10-17T01:06:49;31.70;;;3.58;;
51006;SDS011;37034;47.886;-3.904;2022-10-17T01:09:15;30.92;;;3.08;;
51006;SDS011;37034;47.886;-3.904;2022-10-17T01:29:00;51.25;;;6.65;;
51006;SDS011;37034;47.886;-3.904;2022-10-17T01:31:46;50.78;;;4.85;;
51006;SDS011;37034;47.886;-3.904;2022-10-17T01:34:21;45.30;;;4.68;;
51006;SDS011;37034;47.886;-3.904;2022-10-17T01:37:04;37.42;;;4.15;;
51006;SDS011;37034;47.886;-3.904;2022-10-17T01:42:12;40.67;;;5.25;;
51006;SDS011;37034;47.886;-3.904;2022-10-17T01:47:19;33.20;;;4.82;;
51006;SDS011;37034;47.886;-3.904;2022-10-17T01:49:47;44.90;;;4.80;;
51006;SDS011;37034;47.886;-3.904;2022-10-17T01:52:18;39.35;;;5.05;;
51006;SDS011;37034;47.886;-3.904;2022-10-17T01:55:21;34.03;;;4.70;;
51006;SDS011;37034;47.886;-3.904;2022-10-17T01:58:02;35.83;;;4.88;;
51006;SDS011;37034;47.886;-3.904;2022-10-17T02:00:32;35.65;;;4.85;;
51006;SDS011;37034;47.886;-3.904;2022-10-17T02:03:00;39.13;;;4.75;;
51006;SDS011;37034;47.886;-3.904;2022-10-17T02:05:31;37.13;;;5.40;;
51006;SDS011;37034;47.886;-3.904;2022-10-17T02:08:01;37.47;;;4.95;;
51006;SDS011;37034;47.886;-3.904;2022-10-17T02:13:26;41.53;;;5.05;;
51006;SDS011;37034;47.886;-3.904;2022-10-17T02:16:18;54.90;;;5.68;;
51006;SDS011;37034;47.886;-3.904;2022-10-17T02:21:35;36.25;;;4.20;;
51006;SDS011;37034;47.886;-3.904;2022-10-17T02:26:55;36.03;;;4.70;;
51006;SDS011;37034;47.886;-3.904;2022-10-17T02:29:49;32.92;;;3.72;;
51006;SDS011;37034;47.886;-3.904;2022-10-17T02:32:27;36.08;;;3.92;;
51006;SDS011;37034;47.886;-3.904;2022-10-17T02:35:00;32.88;;;4.05;;
51006;SDS011;37034;47.886;-3.904;2022-10-17T02:37:43;45.05;;;5.22;;
51006;SDS011;37034;47.886;-3.904;2022-10-17T02:40:37;43.53;;;5.88;;
51006;SDS011;37034;47.886;-3.904;2022-10-17T02:43:07;36.13;;;4.57;;
51006;SDS011;37034;47.886;-3.904;2022-10-17T02:45:56;39.17;;;4.65;;
51006;SDS011;37034;47.886;-3.904;2022-10-17T02:48:27;37.50;;;4.88;;
51006;SDS011;37034;47.886;-3.904;2022-10-17T02:53:37;33.50;;;3.95;;
51006;SDS011;37034;47.886;-3.904;2022-10-17T02:56:07;31.20;;;3.67;;
51006;SDS011;37034;47.886;-3.904;2022-10-17T02:58:44;27.52;;;3.28;;
51006;SDS011;37034;47.886;-3.904;2022-10-17T03:01:20;30.52;;;3.97;;
51006;SDS011;37034;47.886;-3.904;2022-10-17T03:04:07;36.35;;;4.13;;
51006;SDS011;37034;47.886;-3.904;2022-10-17T03:06:52;36.50;;;4.05;;
51006;SDS011;37034;47.886;-3.904;2022-10-17T03:09:18;33.72;;;3.95;;
51006;SDS011;37034;47.886;-3.904;2022-10-17T03:11:44;32.55;;;4.57;;
51006;SDS011;37034;47.886;-3.904;2022-10-17T03:14:27;35.55;;;3.50;;
51006;SDS011;37034;47.886;-3.904;2022-10-17T03:16:53;25.08;;;2.97;;
51006;SDS011;37034;47.886;-3.904;2022-10-17T03:19:19;28.27;;;4.30;;
51006;SDS011;37034;47.886;-3.904;2022-10-17T03:21:44;27.13;;;3.25;;
51006;SDS011;37034;47.886;-3.904;2022-10-17T03:24:10;28.60;;;3.20;;
51006;SDS011;37034;47.886;-3.904;2022-10-17T03:26:36;24.10;;;2.67;;
51006;SDS011;37034;47.886;-3.904;2022-10-17T03:29:08;25.42;;;3.45;;
51006;SDS011;37034;47.886;-3.904;2022-10-17T03:31:39;28.60;;;3.10;;
51006;SDS011;37034;47.886;-3.904;2022-10-17T03:34:10;26.95;;;3.47;;
51006;SDS011;37034;47.886;-3.904;2022-10-17T03:36:36;27.23;;;3.05;;
51006;SDS011;37034;47.886;-3.904;2022-10-17T03:39:02;21.35;;;2.63;;
51006;SDS011;37034;47.886;-3.904;2022-10-17T03:41:28;20.48;;;2.22;;
51006;SDS011;37034;47.886;-3.904;2022-10-17T03:43:53;20.27;;;2.00;;
51006;SDS011;37034;47.886;-3.904;2022-10-17T03:46:19;19.15;;;2.50;;
51006;SDS011;37034;47.886;-3.904;2022-10-17T03:48:45;19.77;;;2.80;;
51006;SDS011;37034;47.886;-3.904;2022-10-17T03:51:10;23.08;;;2.28;;
51006;SDS011;37034;47.886;-3.904;2022-10-17T03:53:39;19.25;;;2.00;;
51006;SDS011;37034;47.886;-3.904;2022-10-17T03:56:12;21.10;;;2.28;;
51006;SDS011;37034;47.886;-3.904;2022-10-17T03:58:43;23.67;;;2.35;;
51006;SDS011;37034;47.886;-3.904;2022-10-17T04:01:19;19.58;;;1.80;;
51006;SDS011;37034;47.886;-3.904;2022-10-17T04:03:53;18.83;;;1.80;;
51006;SDS011;37034;47.886;-3.904;2022-10-17T04:06:20;19.00;;;1.45;;
51006;SDS011;37034;47.886;-3.904;2022-10-17T04:08:53;18.25;;;1.45;;
51006;SDS011;37034;47.886;-3.904;2022-10-17T04:11:19;13.80;;;1.48;;
51006;SDS011;37034;47.886;-3.904;2022-10-17T04:16:29;13.90;;;1.63;;
51006;SDS011;37034;47.886;-3.904;2022-10-17T04:18:55;11.60;;;1.15;;
51006;SDS011;37034;47.886;-3.904;2022-10-17T04:21:23;13.05;;;1.35;;
51006;SDS011;37034;47.886;-3.904;2022-10-17T04:23:53;12.48;;;1.05;;
51006;SDS011;37034;47.886;-3.904;2022-10-17T04:26:20;7.10;;;0.73;;
51006;SDS011;37034;47.886;-3.904;2022-10-17T04:28:46;10.07;;;0.98;;
51006;SDS011;37034;47.886;-3.904;2022-10-17T04:31:12;8.50;;;0.90;;
51006;SDS011;37034;47.886;-3.904;2022-10-17T04:33:39;7.85;;;0.88;;
51006;SDS011;37034;47.886;-3.904;2022-10-17T04:36:06;7.18;;;1.20;;
51006;SDS011;37034;47.886;-3.904;2022-10-17T04:38:35;10.85;;;1.08;;
51006;SDS011;37034;47.886;-3.904;2022-10-17T04:41:02;13.20;;;1.15;;
51006;SDS011;37034;47.886;-3.904;2022-10-17T04:43:30;7.35;;;1.13;;
51006;SDS011;37034;47.886;-3.904;2022-10-17T04:48:22;10.93;;;1.05;;
51006;SDS011;37034;47.886;-3.904;2022-10-17T04:50:52;10.20;;;1.45;;
51006;SDS011;37034;47.886;-3.904;2022-10-17T04:53:25;12.80;;;1.00;;
51006;SDS011;37034;47.886;-3.904;2022-10-17T04:55:51;8.10;;;0.98;;
51006;SDS011;37034;47.886;-3.904;2022-10-17T04:58:17;14.32;;;2.03;;
51006;SDS011;37034;47.886;-3.904;2022-10-17T05:00:47;11.30;;;1.10;;
51006;SDS011;37034;47.886;-3.904;2022-10-17T05:03:13;14.13;;;1.13;;
51006;SDS011;37034;47.886;-3.904;2022-10-17T05:08:05;7.82;;;1.42;;
51006;SDS011;37034;47.886;-3.904;2022-10-17T05:10:36;12.18;;;1.30;;
51006;SDS011;37034;47.886;-3.904;2022-10-17T05:13:06;9.10;;;0.90;;
51006;SDS011;37034;47.886;-3.904;2022-10-17T05:15:32;12.05;;;1.50;;
51006;SDS011;37034;47.886;-3.904;2022-10-17T05:17:58;10.52;;;1.02;;
51006;SDS011;37034;47.886;-3.904;2022-10-17T05:20:27;8.23;;;0.98;;
51006;SDS011;37034;47.886;-3.904;2022-10-17T05:22:53;12.52;;;1.48;;
51006;SDS011;37034;47.886;-3.904;2022-10-17T05:25:18;9.80;;;1.35;;
51006;SDS011;37034;47.886;-3.904;2022-10-17T05:27:44;13.77;;;1.00;;
51006;SDS011;37034;47.886;-3.904;2022-10-17T05:30:10;11.30;;;1.57;;
51006;SDS011;37034;47.886;-3.904;2022-10-17T05:32:36;9.77;;;1.13;;
51006;SDS011;37034;47.886;-3.904;2022-10-17T05:35:02;10.15;;;1.33;;
51006;SDS011;37034;47.886;-3.904;2022-10-17T05:37:28;9.35;;;0.93;;
51006;SDS011;37034;47.886;-3.904;2022-10-17T05:42:20;14.18;;;1.77;;
51006;SDS011;37034;47.886;-3.904;2022-10-17T05:44:46;8.10;;;0.90;;
51006;SDS011;37034;47.886;-3.904;2022-10-17T05:47:12;7.25;;;1.05;;
51006;SDS011;37034;47.886;-3.904;2022-10-17T05:49:40;8.55;;;0.90;;
51006;SDS011;37034;47.886;-3.904;2022-10-17T05:52:09;6.10;;;0.93;;
51006;SDS011;37034;47.886;-3.904;2022-10-17T05:54:37;8.07;;;1.00;;
51006;SDS011;37034;47.886;-3.904;2022-10-17T05:57:08;8.18;;;0.82;;
51006;SDS011;37034;47.886;-3.904;2022-10-17T05:59:36;10.90;;;1.10;;
51006;SDS011;37034;47.886;-3.904;2022-10-17T06:02:27;13.88;;;1.67;;
51006;SDS011;37034;47.886;-3.904;2022-10-17T06:04:57;11.35;;;1.65;;
51006;SDS011;37034;47.886;-3.904;2022-10-17T06:07:25;6.70;;;0.90;;
51006;SDS011;37034;47.886;-3.904;2022-10-17T06:09:53;11.32;;;0.85;;
51006;SDS011;37034;47.886;-3.904;2022-10-17T06:12:19;8.23;;;1.23;;
51006;SDS011;37034;47.886;-3.904;2022-10-17T06:14:47;8.00;;;1.00;;
51006;SDS011;37034;47.886;-3.904;2022-10-17T06:17:17;6.38;;;0.80;;
51006;SDS011;37034;47.886;-3.904;2022-10-17T06:19:45;6.32;;;0.88;;
51006;SDS011;37034;47.886;-3.904;2022-10-17T06:22:11;5.85;;;0.77;;
51006;SDS011;37034;47.886;-3.904;2022-10-17T06:24:45;6.43;;;0.90;;
51006;SDS011;37034;47.886;-3.904;2022-10-17T06:27:18;9.48;;;0.70;;
51006;SDS011;37034;47.886;-3.904;2022-10-17T06:29:47;8.25;;;0.80;;
51006;SDS011;37034;47.886;-3.904;2022-10-17T06:32:18;6.55;;;1.15;;
51006;SDS011;37034;47.886;-3.904;2022-10-17T06:34:43;8.88;;;1.35;;
51006;SDS011;37034;47.886;-3.904;2022-10-17T06:37:09;9.83;;;1.03;;
51006;SDS011;37034;47.886;-3.904;2022-10-17T06:39:35;8.82;;;0.93;;
51006;SDS011;37034;47.886;-3.904;2022-10-17T06:42:10;12.43;;;1.42;;
51006;SDS011;37034;47.886;-3.904;2022-10-17T06:44:41;8.07;;;1.10;;
51006;SDS011;37034;47.886;-3.904;2022-10-17T06:47:31;8.95;;;1.02;;
51006;SDS011;37034;47.886;-3.904;2022-10-17T06:50:00;5.68;;;0.77;;
51006;SDS011;37034;47.886;-3.904;2022-10-17T06:52:34;7.68;;;1.30;;
51006;SDS011;37034;47.886;-3.904;2022-10-17T06:55:03;9.85;;;1.20;;
51006;SDS011;37034;47.886;-3.904;2022-10-17T06:57:29;11.02;;;1.38;;
51006;SDS011;37034;47.886;-3.904;2022-10-17T06:59:57;8.75;;;2.10;;
51006;SDS011;37034;47.886;-3.904;2022-10-17T07:02:30;7.45;;;1.65;;
51006;SDS011;37034;47.886;-3.904;2022-10-17T07:04:56;7.97;;;0.97;;
51006;SDS011;37034;47.886;-3.904;2022-10-17T07:07:21;9.10;;;1.20;;
51006;SDS011;37034;47.886;-3.904;2022-10-17T07:09:47;8.77;;;1.45;;
51006;SDS011;37034;47.886;-3.904;2022-10-17T07:12:13;5.88;;;1.25;;
51006;SDS011;37034;47.886;-3.904;2022-10-17T07:14:38;5.32;;;0.93;;
51006;SDS011;37034;47.886;-3.904;2022-10-17T07:17:04;11.50;;;1.08;;
51006;SDS011;37034;47.886;-3.904;2022-10-17T07:19:30;10.10;;;1.10;;
51006;SDS011;37034;47.886;-3.904;2022-10-17T07:21:59;11.50;;;1.10;;
51006;SDS011;37034;47.886;-3.904;2022-10-17T07:24:25;6.32;;;1.52;;
51006;SDS011;37034;47.886;-3.904;2022-10-17T07:26:50;6.03;;;1.15;;
51006;SDS011;37034;47.886;-3.904;2022-10-17T07:29:16;10.45;;;1.60;;
51006;SDS011;37034;47.886;-3.904;2022-10-17T07:31:52;7.90;;;1.10;;
51006;SDS011;37034;47.886;-3.904;2022-10-17T07:34:18;6.13;;;1.27;;
51006;SDS011;37034;47.886;-3.904;2022-10-17T07:36:44;7.93;;;1.65;;
51006;SDS011;37034;47.886;-3.904;2022-10-17T07:39:20;10.18;;;1.13;;
51006;SDS011;37034;47.886;-3.904;2022-10-17T07:41:47;13.25;;;1.67;;
51006;SDS011;37034;47.886;-3.904;2022-10-17T07:44:17;8.10;;;1.20;;
51006;SDS011;37034;47.886;-3.904;2022-10-17T07:46:59;6.18;;;1.20;;
51006;SDS011;37034;47.886;-3.904;2022-10-17T07:49:46;10.30;;;1.23;;
51006;SDS011;37034;47.886;-3.904;2022-10-17T07:52:16;6.88;;;0.90;;
51006;SDS011;37034;47.886;-3.904;2022-10-17T07:54:45;7.65;;;1.73;;
51006;SDS011;37034;47.886;-3.904;2022-10-17T07:57:14;9.05;;;1.67;;
51006;SDS011;37034;47.886;-3.904;2022-10-17T07:59:44;7.25;;;1.23;;
51006;SDS011;37034;47.886;-3.904;2022-10-17T08:02:33;11.93;;;1.50;;
51006;SDS011;37034;47.886;-3.904;2022-10-17T08:04:58;9.73;;;0.90;;
51006;SDS011;37034;47.886;-3.904;2022-10-17T08:07:24;9.95;;;1.08;;
51006;SDS011;37034;47.886;-3.904;2022-10-17T08:09:49;5.53;;;1.20;;
51006;SDS011;37034;47.886;-3.904;2022-10-17T08:12:15;10.70;;;1.00;;
51006;SDS011;37034;47.886;-3.904;2022-10-17T08:14:42;12.02;;;1.08;;
51006;SDS011;37034;47.886;-3.904;2022-10-17T08:17:08;6.72;;;1.13;;
51006;SDS011;37034;47.886;-3.904;2022-10-17T08:19:38;6.65;;;1.00;;
51006;SDS011;37034;47.886;-3.904;2022-10-17T08:22:07;6.13;;;0.85;;
51006;SDS011;37034;47.886;-3.904;2022-10-17T08:24:33;8.30;;;1.30;;
51006;SDS011;37034;47.886;-3.904;2022-10-17T08:26:58;8.50;;;1.40;;
51006;SDS011;37034;47.886;-3.904;2022-10-17T08:29:25;8.65;;;0.98;;
51006;SDS011;37034;47.886;-3.904;2022-10-17T08:31:53;15.90;;;1.55;;
51006;SDS011;37034;47.886;-3.904;2022-10-17T08:34:19;11.80;;;1.33;;
51006;SDS011;37034;47.886;-3.904;2022-10-17T08:36:44;13.70;;;1.50;;
51006;SDS011;37034;47.886;-3.904;2022-10-17T08:39:10;12.63;;;1.55;;
51006;SDS011;37034;47.886;-3.904;2022-10-17T08:41:52;7.88;;;1.02;;
51006;SDS011;37034;47.886;-3.904;2022-10-17T08:44:56;5.85;;;1.13;;
51006;SDS011;37034;47.886;-3.904;2022-10-17T08:47:51;7.90;;;1.20;;
51006;SDS011;37034;47.886;-3.904;2022-10-17T08:58:19;14.35;;;1.95;;
51006;SDS011;37034;47.886;-3.904;2022-10-17T09:11:41;7.10;;;1.17;;
51006;SDS011;37034;47.886;-3.904;2022-10-17T09:20:15;8.80;;;1.20;;
51006;SDS011;37034;47.886;-3.904;2022-10-17T09:25:31;7.85;;;0.82;;
51006;SDS011;37034;47.886;-3.904;2022-10-17T09:35:37;15.43;;;2.10;;
51006;SDS011;37034;47.886;-3.904;2022-10-17T09:38:06;12.52;;;1.55;;
51006;SDS011;37034;47.886;-3.904;2022-10-17T09:40:38;13.85;;;1.80;;
51006;SDS011;37034;47.886;-3.904;2022-10-17T09:43:04;9.32;;;1.88;;
51006;SDS011;37034;47.886;-3.904;2022-10-17T09:45:32;10.98;;;1.80;;
51006;SDS011;37034;47.886;-3.904;2022-10-17T09:48:15;8.10;;;1.30;;
51006;SDS011;37034;47.886;-3.904;2022-10-17T09:50:42;7.10;;;0.70;;
51006;SDS011;37034;47.886;-3.904;2022-10-17T09:53:13;11.55;;;1.23;;
51006;SDS011;37034;47.886;-3.904;2022-10-17T09:55:48;11.98;;;1.70;;
51006;SDS011;37034;47.886;-3.904;2022-10-17T09:58:20;10.98;;;1.50;;
51006;SDS011;37034;47.886;-3.904;2022-10-17T10:03:20;9.35;;;1.10;;
51006;SDS011;37034;47.886;-3.904;2022-10-17T10:08:25;12.88;;;1.55;;
51006;SDS011;37034;47.886;-3.904;2022-10-17T10:10:57;12.52;;;1.85;;
51006;SDS011;37034;47.886;-3.904;2022-10-17T10:13:25;9.07;;;1.25;;
51006;SDS011;37034;47.886;-3.904;2022-10-17T10:21:01;12.43;;;1.65;;
51006;SDS011;37034;47.886;-3.904;2022-10-17T10:23:44;15.77;;;1.30;;
51006;SDS011;37034;47.886;-3.904;2022-10-17T10:27:11;5.82;;;0.98;;
51006;SDS011;37034;47.886;-3.904;2022-10-17T10:29:22;10.30;;;1.30;;
51006;SDS011;37034;47.886;-3.904;2022-10-17T10:32:41;11.52;;;1.40;;
51006;SDS011;37034;47.886;-3.904;2022-10-17T10:34:53;10.05;;;1.42;;
51006;SDS011;37034;47.886;-3.904;2022-10-17T10:40:03;15.98;;;1.30;;
51006;SDS011;37034;47.886;-3.904;2022-10-17T10:42:45;9.40;;;1.08;;
51006;SDS011;37034;47.886;-3.904;2022-10-17T10:45:17;10.90;;;1.70;;
51006;SDS011;37034;47.886;-3.904;2022-10-17T10:47:49;8.15;;;1.08;;
51006;SDS011;37034;47.886;-3.904;2022-10-17T10:50:29;13.43;;;1.58;;
51006;SDS011;37034;47.886;-3.904;2022-10-17T10:56:03;12.68;;;1.75;;
51006;SDS011;37034;47.886;-3.904;2022-10-17T11:01:13;15.10;;;1.70;;
51006;SDS011;37034;47.886;-3.904;2022-10-17T11:03:53;12.20;;;1.30;;
51006;SDS011;37034;47.886;-3.904;2022-10-17T11:06:39;8.60;;;1.30;;
51006;SDS011;37034;47.886;-3.904;2022-10-17T11:09:14;9.80;;;1.10;;
51006;SDS011;37034;47.886;-3.904;2022-10-17T11:11:44;7.45;;;0.90;;
51006;SDS011;37034;47.886;-3.904;2022-10-17T11:14:18;10.82;;;1.27;;
51006;SDS011;37034;47.886;-3.904;2022-10-17T11:16:53;9.90;;;1.13;;
51006;SDS011;37034;47.886;-3.904;2022-10-17T11:19:30;8.82;;;0.90;;
51006;SDS011;37034;47.886;-3.904;2022-10-17T11:22:15;10.80;;;1.67;;
51006;SDS011;37034;47.886;-3.904;2022-10-17T11:27:29;8.10;;;1.23;;
51006;SDS011;37034;47.886;-3.904;2022-10-17T11:32:37;6.53;;;1.33;;
51006;SDS011;37034;47.886;-3.904;2022-10-17T11:35:16;8.52;;;1.17;;
51006;SDS011;37034;47.886;-3.904;2022-10-17T11:40:52;11.48;;;1.33;;
51006;SDS011;37034;47.886;-3.904;2022-10-17T11:43:28;14.32;;;1.42;;
51006;SDS011;37034;47.886;-3.904;2022-10-17T11:45:59;12.00;;;1.17;;
51006;SDS011;37034;47.886;-3.904;2022-10-17T11:48:30;11.18;;;1.70;;
51006;SDS011;37034;47.886;-3.904;2022-10-17T11:51:09;11.18;;;1.42;;
51006;SDS011;37034;47.886;-3.904;2022-10-17T11:56:11;10.65;;;1.42;;
51006;SDS011;37034;47.886;-3.904;2022-10-17T12:03:43;13.32;;;1.30;;
51006;SDS011;37034;47.886;-3.904;2022-10-17T12:09:10;10.43;;;1.65;;
51006;SDS011;37034;47.886;-3.904;2022-10-17T12:22:58;10.20;;;1.55;;
51006;SDS011;37034;47.886;-3.904;2022-10-17T12:25:49;12.20;;;1.40;;
51006;SDS011;37034;47.886;-3.904;2022-10-17T12:38:49;9.90;;;0.93;;
51006;SDS011;37034;47.886;-3.904;2022-10-17T13:03:21;11.57;;;1.35;;
51006;SDS011;37034;47.886;-3.904;2022-10-17T13:05:54;6.70;;;0.88;;
51006;SDS011;37034;47.886;-3.904;2022-10-17T13:08:24;8.20;;;0.80;;
51006;SDS011;37034;47.886;-3.904;2022-10-17T13:11:01;6.45;;;0.95;;
51006;SDS011;37034;47.886;-3.904;2022-10-17T13:16:29;4.07;;;0.95;;
51006;SDS011;37034;47.886;-3.904;2022-10-17T13:18:55;4.75;;;0.93;;
51006;SDS011;37034;47.886;-3.904;2022-10-17T13:21:21;6.32;;;0.82;;
51006;SDS011;37034;47.886;-3.904;2022-10-17T13:23:46;7.25;;;0.95;;
51006;SDS011;37034;47.886;-3.904;2022-10-17T13:26:15;6.80;;;0.88;;
51006;SDS011;37034;47.886;-3.904;2022-10-17T13:28:45;8.20;;;1.20;;
51006;SDS011;37034;47.886;-3.904;2022-10-17T13:31:38;9.60;;;1.15;;
51006;SDS011;37034;47.886;-3.904;2022-10-17T13:34:15;5.07;;;0.90;;
51006;SDS011;37034;47.886;-3.904;2022-10-17T13:36:46;7.20;;;0.82;;
51006;SDS011;37034;47.886;-3.904;2022-10-17T13:39:16;11.10;;;1.60;;
51006;SDS011;37034;47.886;-3.904;2022-10-17T13:41:45;8.10;;;0.82;;
51006;SDS011;37034;47.886;-3.904;2022-10-17T13:44:15;4.25;;;0.73;;
51006;SDS011;37034;47.886;-3.904;2022-10-17T13:46:43;5.45;;;0.60;;
51006;SDS011;37034;47.886;-3.904;2022-10-17T13:49:54;8.00;;;1.25;;
51006;SDS011;37034;47.886;-3.904;2022-10-17T13:51:58;8.20;;;1.77;;
51006;SDS011;37034;47.886;-3.904;2022-10-17T13:57:13;7.05;;;1.23;;
51006;SDS011;37034;47.886;-3.904;2022-10-17T14:00:00;6.63;;;0.80;;
51006;SDS011;37034;47.886;-3.904;2022-10-17T14:02:31;7.53;;;1.13;;
51006;SDS011;37034;47.886;-3.904;2022-10-17T14:07:43;10.88;;;0.88;;
51006;SDS011;37034;47.886;-3.904;2022-10-17T14:10:24;5.43;;;0.85;;
51006;SDS011;37034;47.886;-3.904;2022-10-17T14:12:54;14.77;;;1.30;;
51006;SDS011;37034;47.886;-3.904;2022-10-17T14:15:21;3.53;;;0.70;;
51006;SDS011;37034;47.886;-3.904;2022-10-17T14:17:56;9.48;;;1.38;;
51006;SDS011;37034;47.886;-3.904;2022-10-17T14:20:24;9.60;;;1.30;;
51006;SDS011;37034;47.886;-3.904;2022-10-17T14:22:53;10.90;;;1.27;;
51006;SDS011;37034;47.886;-3.904;2022-10-17T14:25:29;10.30;;;1.33;;
51006;SDS011;37034;47.886;-3.904;2022-10-17T14:28:07;7.82;;;1.10;;
51006;SDS011;37034;47.886;-3.904;2022-10-17T14:33:11;6.43;;;1.23;;
51006;SDS011;37034;47.886;-3.904;2022-10-17T14:36:15;6.28;;;1.00;;
51006;SDS011;37034;47.886;-3.904;2022-10-17T14:38:33;5.47;;;0.90;;
51006;SDS011;37034;47.886;-3.904;2022-10-17T14:43:28;8.30;;;1.00;;
51006;SDS011;37034;47.886;-3.904;2022-10-17T14:45:56;9.52;;;1.35;;
51006;SDS011;37034;47.886;-3.904;2022-10-17T14:48:23;5.68;;;0.93;;
51006;SDS011;37034;47.886;-3.904;2022-10-17T14:53:40;8.30;;;1.05;;
51006;SDS011;37034;47.886;-3.904;2022-10-17T14:56:27;4.93;;;1.10;;
51006;SDS011;37034;47.886;-3.904;2022-10-17T14:59:07;5.70;;;0.70;;
51006;SDS011;37034;47.886;-3.904;2022-10-17T15:01:36;6.00;;;0.80;;
51006;SDS011;37034;47.886;-3.904;2022-10-17T15:04:01;4.63;;;0.60;;
51006;SDS011;37034;47.886;-3.904;2022-10-17T15:06:29;3.83;;;0.57;;
51006;SDS011;37034;47.886;-3.904;2022-10-17T15:08:57;4.60;;;0.80;;
51006;SDS011;37034;47.886;-3.904;2022-10-17T15:11:23;4.30;;;0.70;;
51006;SDS011;37034;47.886;-3.904;2022-10-17T15:13:49;4.35;;;0.65;;
51006;SDS011;37034;47.886;-3.904;2022-10-17T15:16:18;5.10;;;0.90;;
51006;SDS011;37034;47.886;-3.904;2022-10-17T15:18:51;5.30;;;0.50;;
51006;SDS011;37034;47.886;-3.904;2022-10-17T15:21:19;2.97;;;0.40;;
51006;SDS011;37034;47.886;-3.904;2022-10-17T15:23:49;3.22;;;0.63;;
51006;SDS011;37034;47.886;-3.904;2022-10-17T15:26:17;4.63;;;0.93;;
51006;SDS011;37034;47.886;-3.904;2022-10-17T15:28:48;3.13;;;0.50;;
51006;SDS011;37034;47.886;-3.904;2022-10-17T15:31:15;5.32;;;0.73;;
51006;SDS011;37034;47.886;-3.904;2022-10-17T15:33:42;5.55;;;0.60;;
51006;SDS011;37034;47.886;-3.904;2022-10-17T15:38:49;2.30;;;0.50;;
51006;SDS011;37034;47.886;-3.904;2022-10-17T15:41:17;4.30;;;0.57;;
51006;SDS011;37034;47.886;-3.904;2022-10-17T15:43:43;1.77;;;0.52;;
51006;SDS011;37034;47.886;-3.904;2022-10-17T15:46:11;4.72;;;0.65;;
51006;SDS011;37034;47.886;-3.904;2022-10-17T15:48:38;2.97;;;0.45;;
51006;SDS011;37034;47.886;-3.904;2022-10-17T15:51:04;6.22;;;0.70;;
51006;SDS011;37034;47.886;-3.904;2022-10-17T15:53:30;5.53;;;1.05;;
51006;SDS011;37034;47.886;-3.904;2022-10-17T15:55:56;8.93;;;0.98;;
51006;SDS011;37034;47.886;-3.904;2022-10-17T15:58:22;3.85;;;0.60;;
51006;SDS011;37034;47.886;-3.904;2022-10-17T16:00:48;4.00;;;0.75;;
51006;SDS011;37034;47.886;-3.904;2022-10-17T16:03:14;7.85;;;1.13;;
51006;SDS011;37034;47.886;-3.904;2022-10-17T16:05:39;4.95;;;0.75;;
51006;SDS011;37034;47.886;-3.904;2022-10-17T16:08:05;13.05;;;1.52;;
51006;SDS011;37034;47.886;-3.904;2022-10-17T16:10:31;8.23;;;0.90;;
51006;SDS011;37034;47.886;-3.904;2022-10-17T16:12:57;10.18;;;0.88;;
51006;SDS011;37034;47.886;-3.904;2022-10-17T16:15:24;5.53;;;0.93;;
51006;SDS011;37034;47.886;-3.904;2022-10-17T16:17:52;9.30;;;1.35;;
51006;SDS011;37034;47.886;-3.904;2022-10-17T16:20:19;8.43;;;1.75;;
51006;SDS011;37034;47.886;-3.904;2022-10-17T16:22:47;11.10;;;1.10;;
51006;SDS011;37034;47.886;-3.904;2022-10-17T16:27:50;6.03;;;1.13;;
51006;SDS011;37034;47.886;-3.904;2022-10-17T16:30:20;12.07;;;1.63;;
51006;SDS011;37034;47.886;-3.904;2022-10-17T16:32:47;8.65;;;1.20;;
51006;SDS011;37034;47.886;-3.904;2022-10-17T16:35:30;7.85;;;1.20;;
51006;SDS011;37034;47.886;-3.904;2022-10-17T16:37:56;8.10;;;1.02;;
51006;SDS011;37034;47.886;-3.904;2022-10-17T16:40:22;15.33;;;1.40;;
51006;SDS011;37034;47.886;-3.904;2022-10-17T16:42:47;12.45;;;1.95;;
51006;SDS011;37034;47.886;-3.904;2022-10-17T16:45:21;10.80;;;1.00;;
51006;SDS011;37034;47.886;-3.904;2022-10-17T16:47:47;12.18;;;2.08;;
51006;SDS011;37034;47.886;-3.904;2022-10-17T16:50:13;10.52;;;1.15;;
51006;SDS011;37034;47.886;-3.904;2022-10-17T16:52:40;8.98;;;1.63;;
51006;SDS011;37034;47.886;-3.904;2022-10-17T16:55:06;15.48;;;2.17;;
51006;SDS011;37034;47.886;-3.904;2022-10-17T16:59:57;12.00;;;2.50;;
51006;SDS011;37034;47.886;-3.904;2022-10-17T17:02:23;13.80;;;1.35;;
51006;SDS011;37034;47.886;-3.904;2022-10-17T17:04:49;11.30;;;1.77;;
51006;SDS011;37034;47.886;-3.904;2022-10-17T17:07:15;14.68;;;1.95;;
51006;SDS011;37034;47.886;-3.904;2022-10-17T17:09:42;12.98;;;1.83;;
51006;SDS011;37034;47.886;-3.904;2022-10-17T17:12:08;15.63;;;1.53;;
51006;SDS011;37034;47.886;-3.904;2022-10-17T17:14:34;14.45;;;1.90;;
51006;SDS011;37034;47.886;-3.904;2022-10-17T17:16:59;13.98;;;1.88;;
51006;SDS011;37034;47.886;-3.904;2022-10-17T17:19:25;14.57;;;2.53;;
51006;SDS011;37034;47.886;-3.904;2022-10-17T17:21:51;10.77;;;1.67;;
51006;SDS011;37034;47.886;-3.904;2022-10-17T17:24:17;13.18;;;1.65;;
51006;SDS011;37034;47.886;-3.904;2022-10-17T17:26:48;12.65;;;1.95;;
51006;SDS011;37034;47.886;-3.904;2022-10-17T17:29:15;7.90;;;1.20;;
51006;SDS011;37034;47.886;-3.904;2022-10-17T17:31:41;14.13;;;1.93;;
51006;SDS011;37034;47.886;-3.904;2022-10-17T17:34:06;16.27;;;2.28;;
51006;SDS011;37034;47.886;-3.904;2022-10-17T17:36:33;20.50;;;2.47;;
51006;SDS011;37034;47.886;-3.904;2022-10-17T17:39:01;17.13;;;2.75;;
51006;SDS011;37034;47.886;-3.904;2022-10-17T17:41:28;11.60;;;2.00;;
51006;SDS011;37034;47.886;-3.904;2022-10-17T17:43:54;11.93;;;2.28;;
51006;SDS011;37034;47.886;-3.904;2022-10-17T17:46:20;10.57;;;1.50;;
51006;SDS011;37034;47.886;-3.904;2022-10-17T17:48:47;10.70;;;1.70;;
51006;SDS011;37034;47.886;-3.904;2022-10-17T17:51:15;15.52;;;2.67;;
51006;SDS011;37034;47.886;-3.904;2022-10-17T17:53:42;12.70;;;2.13;;
51006;SDS011;37034;47.886;-3.904;2022-10-17T17:56:09;10.75;;;1.83;;